This is the latest recevied weather packets stored in our database for station/object WX9EMS. If no packets are shown the sender has not sent any weather packets the latest 10 day(s).
| Time | Temp. | Humidity | Pressure | Rain* | Wind** | Luminosity | Snow |
|---|---|---|---|---|---|---|---|
| 1778040034 | 7.22° C | 62% | 1012.5 hPa | 0 mm | - | - | - |
| 1778038853 | 7.78° C | 60% | 1012.1 hPa | 0 mm | - | - | - |
| 1778035833 | 8.89° C | 57% | 1011.8 hPa | 0 mm | - | - | - |
| 1778033433 | 10° C | 53% | 1011.5 hPa | 0 mm | - | - | - |
| 1778031033 | 10.56° C | 51% | 1010.7 hPa | 0 mm | - | - | - |
| 1778029233 | 10.56° C | 51% | 1010.2 hPa | 0 mm | - | - | - |
| 1778026853 | 11.67° C | 50% | 1009.9 hPa | 0 mm | - | - | - |
| 1778026231 | 11.67° C | 52% | 1009.8 hPa | 0 mm | - | - | - |
| 1778019650 | 13.33° C | 45% | 1009.9 hPa | 0 mm | - | - | - |
| 1778017849 | 14.44° C | 42% | 1009.8 hPa | 0 mm | - | - | - |
| 1778014827 | 15° C | 42% | 1010 hPa | 0 mm | - | - | - |
| 1778014228 | 14.44° C | 43% | 1010 hPa | 0 mm | - | - | - |
| 1778008223 | 13.89° C | 39% | 1010.6 hPa | 0 mm | - | - | - |
| 1777997491 | 12.78° C | 45% | 1010.1 hPa | 0 mm | - | - | - |
| 1777996854 | 12.78° C | 46% | 1010.1 hPa | 0 mm | - | - | - |
| 1777995634 | 12.78° C | 46% | 1010 hPa | 0 mm | - | - | - |
| 1777982167 | 8.33° C | 61% | 1009.8 hPa | 0 mm | - | - | - |
| 1777980666 | 7.78° C | 59% | 1009 hPa | 0 mm | - | - | - |
| 1777979129 | 7.78° C | 62% | 1008.7 hPa | 0 mm | - | - | - |
| 1777978247 | 7.78° C | 63% | 1009 hPa | 0 mm | - | - | - |
| 1777977123 | - | - | - | 0 mm | - | - | - |
| 1777976428 | 7.78° C | 68% | 1008.3 hPa | 0 mm | - | - | - |
| 1777975828 | 7.78° C | 67% | 1008 hPa | 0 mm | - | - | - |
| 1777975228 | 7.78° C | 66% | 1008.1 hPa | 0 mm | - | - | - |
| 1777974628 | 8.33° C | 65% | 1007.8 hPa | 0 mm | - | - | - |
* Rain latest hour (hover to see other rain measurements)
** Current wind speed in m/s (hover to see current wind gust speed)